Time;durP1;ratioP1;P1;durP2;ratioP2;P2;SDS_P1;SDS_P2;PMS_P1;PMS_P2;Temp;Humidity;BMP_temperature;BMP_pressure;BME280_temperature;BME280_humidity;BME280_pressure;Samples;Min_cycle;Max_cycle;Signal;HPM_P1;HPM_P2
2023/11/21 00:01:23;;;;;;;8.25;6.30;;;;;;;5.12;100.00;97158.63;1224852;75;2914967;-63
2023/11/21 00:03:56;;;;;;;6.90;5.30;;;;;;;5.11;100.00;97159.06;1225220;75;2917336;-64
2023/11/21 00:06:32;;;;;;;9.35;6.90;;;;;;;4.99;100.00;97163.41;1224623;75;2917851;-62
2023/11/21 00:09:05;;;;;;;8.95;7.00;;;;;;;4.81;100.00;97157.94;1225444;75;2916327;-67
2023/11/21 00:11:37;;;;;;;7.85;6.60;;;;;;;4.92;100.00;97171.84;1225343;75;2923558;-62
2023/11/21 00:14:11;;;;;;;9.35;7.35;;;;;;;4.88;100.00;97179.34;1225518;75;2968020;-64
2023/11/21 00:16:43;;;;;;;9.30;7.25;;;;;;;4.84;100.00;97167.91;1225945;75;2921001;-67
2023/11/21 00:19:16;;;;;;;8.70;6.95;;;;;;;4.91;100.00;97162.94;1225051;75;2914758;-63
2023/11/21 00:21:51;;;;;;;7.75;6.75;;;;;;;4.98;100.00;97164.63;1225397;75;2916712;-63
2023/11/21 00:24:24;;;;;;;7.05;5.55;;;;;;;5.00;100.00;97162.19;1225666;75;2917049;-62
2023/11/21 00:26:57;;;;;;;8.45;6.10;;;;;;;4.94;100.00;97166.72;1225775;75;2921774;-61
2023/11/21 00:29:29;;;;;;;6.60;5.60;;;;;;;4.98;100.00;97164.63;1224203;75;2931903;-60
2023/11/21 00:32:02;;;;;;;7.50;5.45;;;;;;;4.98;100.00;97164.63;1225181;75;2912548;-63
2023/11/21 00:34:35;;;;;;;6.00;5.20;;;;;;;5.00;100.00;97170.31;1224742;75;2921507;-63
2023/11/21 00:37:10;;;;;;;9.05;6.95;;;;;;;4.69;100.00;97184.00;1224876;75;2916349;-63
2023/11/21 00:39:43;;;;;;;9.25;6.95;;;;;;;4.89;100.00;97183.59;1224943;75;2914788;-64
2023/11/21 00:42:16;;;;;;;9.75;7.00;;;;;;;4.64;100.00;97184.56;1225161;75;2914598;-63
2023/11/21 00:44:48;;;;;;;10.30;7.90;;;;;;;4.81;100.00;97179.63;1223779;75;2918609;-64
2023/11/21 00:47:22;;;;;;;10.05;7.45;;;;;;;4.75;100.00;97184.91;1226166;75;2923564;-64
2023/11/21 00:49:55;;;;;;;12.10;8.60;;;;;;;4.66;100.00;97191.03;1225553;75;2920929;-61
2023/11/21 00:52:32;;;;;;;12.65;9.50;;;;;;;4.83;100.00;97193.50;1225180;75;2926553;-64
2023/11/21 00:55:04;;;;;;;13.70;7.75;;;;;;;4.92;100.00;97193.53;1226005;75;2920662;-62
2023/11/21 00:57:37;;;;;;;9.05;6.80;;;;;;;4.74;100.00;97191.53;1225433;75;2912862;-64
2023/11/21 01:00:16;;;;;;;13.90;10.65;;;;;;;4.41;100.00;97188.56;1224791;75;2922435;-64
2023/11/21 01:02:49;;;;;;;14.00;11.05;;;;;;;4.64;100.00;97176.44;1224771;75;2919240;-66
2023/11/21 01:08:10;;;;;;;8.75;7.30;;;;;;;4.87;100.00;97164.28;1225612;75;2918232;-65
2023/11/21 01:10:43;;;;;;;7.25;6.45;;;;;;;4.90;100.00;97160.69;1225691;75;2912764;-65
2023/11/21 01:13:18;;;;;;;9.05;6.25;;;;;;;4.88;100.00;97161.13;1225770;75;2915629;-61
2023/11/21 01:15:51;;;;;;;7.25;5.65;;;;;;;4.93;100.00;97161.72;1225408;75;2928404;-62
2023/11/21 01:18:25;;;;;;;6.75;5.60;;;;;;;4.99;100.00;97165.38;1226298;75;2915063;-65
2023/11/21 01:20:58;;;;;;;6.05;5.00;;;;;;;5.04;100.00;97157.38;1225752;75;2917966;-64
2023/11/21 01:23:33;;;;;;;7.50;5.45;;;;;;;4.85;100.00;97153.88;1225594;75;2915345;-62
2023/11/21 01:26:08;;;;;;;12.75;9.70;;;;;;;4.75;100.00;97157.03;1225685;75;2917627;-64
2023/11/21 01:28:41;;;;;;;13.55;10.30;;;;;;;4.85;100.00;97142.28;1225765;75;2915994;-63
2023/11/21 01:31:14;;;;;;;14.05;10.85;;;;;;;4.77;100.00;97130.97;1226614;75;2913923;-62
2023/11/21 01:33:46;;;;;;;12.70;9.80;;;;;;;4.65;100.00;97129.91;1226367;75;2922853;-62
2023/11/21 01:36:19;;;;;;;15.95;11.10;;;;;;;4.68;100.00;97123.56;1224598;75;2919030;-62
2023/11/21 01:38:54;;;;;;;13.45;9.70;;;;;;;4.81;100.00;97128.09;1226135;75;2912601;-64
2023/11/21 01:41:27;;;;;;;10.35;8.05;;;;;;;5.09;100.00;97126.19;1225532;75;2920591;-61
2023/11/21 01:44:00;;;;;;;9.20;7.25;;;;;;;5.06;100.00;97125.13;1224899;75;2912247;-64
2023/11/21 01:46:32;;;;;;;8.25;7.05;;;;;;;5.21;100.00;97132.69;1225890;75;2910934;-63
2023/11/21 01:49:05;;;;;;;13.30;8.95;;;;;;;4.96;100.00;97133.72;1225180;75;2913656;-60
2023/11/21 01:51:38;;;;;;;15.40;11.10;;;;;;;4.85;100.00;97120.59;1225282;75;2914579;-62
2023/11/21 01:54:14;;;;;;;15.65;11.30;;;;;;;4.96;100.00;97125.59;1226104;75;2914017;-63
2023/11/21 01:56:49;;;;;;;17.60;12.45;;;;;;;4.93;100.00;97124.53;1226254;75;2915790;-62
2023/11/21 01:59:24;;;;;;;15.65;11.25;;;;;;;4.97;100.00;97119.69;1225685;75;2923748;-63
2023/11/21 02:01:57;;;;;;;19.00;12.95;;;;;;;4.94;100.00;97122.56;1225586;75;2913767;-62
2023/11/21 02:04:29;;;;;;;13.20;10.75;;;;;;;5.01;100.00;97125.75;1225174;75;2922460;-64
2023/11/21 02:07:05;;;;;;;15.80;12.15;;;;;;;5.00;100.00;97124.22;1225967;75;2912232;-63
2023/11/21 02:09:42;;;;;;;14.30;11.05;;;;;;;5.26;100.00;97118.50;1225546;75;2927938;-64
2023/11/21 02:12:15;;;;;;;10.75;8.45;;;;;;;5.27;100.00;97112.63;1225665;75;2914360;-64
2023/11/21 02:14:48;;;;;;;9.60;7.65;;;;;;;5.38;100.00;97120.31;1224068;75;2921562;-62
2023/11/21 02:17:21;;;;;;;8.20;6.50;;;;;;;5.43;100.00;97114.25;1225374;75;2916204;-65
2023/11/21 02:19:54;;;;;;;8.60;6.85;;;;;;;5.37;100.00;97123.50;1225759;75;2913048;-64
2023/11/21 02:22:27;;;;;;;7.30;5.45;;;;;;;5.49;100.00;97114.44;1225455;75;2912960;-62
2023/11/21 02:25:02;;;;;;;6.60;5.30;;;;;;;5.54;100.00;97111.84;1224625;75;2914336;-63
2023/11/21 02:27:35;;;;;;;7.20;5.50;;;;;;;5.55;100.00;97116.06;1225577;75;2913319;-61
2023/11/21 02:30:13;;;;;;;6.50;5.20;;;;;;;5.62;100.00;97119.69;1225652;75;2916545;-64
2023/11/21 02:32:46;;;;;;;5.60;4.70;;;;;;;5.61;100.00;97115.47;1225856;75;2931348;-60
2023/11/21 02:35:20;;;;;;;4.25;3.85;;;;;;;5.54;100.00;97108.38;1225313;75;2918085;-64
2023/11/21 02:37:53;;;;;;;4.95;4.25;;;;;;;5.59;100.00;97107.03;1225613;75;2925474;-65
2023/11/21 02:40:29;;;;;;;5.00;3.90;;;;;;;5.67;100.00;97108.19;1222332;75;2955576;-61
2023/11/21 02:43:01;;;;;;;11.10;4.00;;;;;;;5.70;100.00;97107.28;1224694;75;2921156;-60
2023/11/21 02:45:34;;;;;;;4.10;3.30;;;;;;;5.73;100.00;97109.09;1224524;75;2912059;-66
2023/11/21 02:48:07;;;;;;;5.00;3.75;;;;;;;5.74;100.00;97110.59;1225660;75;2917036;-63
2023/11/21 02:50:40;;;;;;;4.05;2.90;;;;;;;5.82;100.00;97108.31;1224426;75;2918896;-64
2023/11/21 02:53:12;;;;;;;4.00;3.25;;;;;;;5.67;100.00;97100.06;1223627;75;2918598;-64
2023/11/21 02:55:48;;;;;;;5.55;3.30;;;;;;;5.78;100.00;97097.63;1225276;75;2915159;-62
2023/11/21 02:58:20;;;;;;;4.70;3.40;;;;;;;5.84;100.00;97087.63;1224388;75;2913734;-63
2023/11/21 03:00:54;;;;;;;3.90;2.95;;;;;;;5.85;100.00;97094.59;1224412;75;2917654;-65
2023/11/21 03:03:27;;;;;;;4.50;3.30;;;;;;;5.90;100.00;97101.38;1224423;75;2921902;-62
2023/11/21 03:05:59;;;;;;;4.15;3.15;;;;;;;5.87;100.00;97097.59;1223932;75;2920911;-63
2023/11/21 03:08:32;;;;;;;3.95;2.80;;;;;;;5.88;100.00;97096.38;1225259;75;2923785;-62
2023/11/21 03:11:08;;;;;;;3.80;2.40;;;;;;;5.85;100.00;97101.97;1224362;75;2919140;-64
2023/11/21 03:13:40;;;;;;;7.70;5.25;;;;;;;5.69;100.00;97108.50;1225024;75;2923034;-63
2023/11/21 03:16:14;;;;;;;6.05;4.60;;;;;;;5.91;100.00;97105.56;1225437;75;2916311;-64
2023/11/21 03:18:46;;;;;;;5.60;4.35;;;;;;;5.92;100.00;97115.25;1224967;75;2914353;-62
2023/11/21 03:21:19;;;;;;;6.90;5.20;;;;;;;5.82;100.00;97121.91;1224720;75;2919953;-65
2023/11/21 03:23:52;;;;;;;5.80;5.20;;;;;;;5.76;100.00;97127.19;1226169;75;2917378;-64
2023/11/21 03:26:27;;;;;;;8.70;6.30;;;;;;;5.62;100.00;97128.56;1225073;75;2917505;-60
2023/11/21 03:29:00;;;;;;;8.25;6.45;;;;;;;5.67;100.00;97125.25;1224169;75;2922257;-64
2023/11/21 03:31:32;;;;;;;7.70;6.25;;;;;;;5.63;100.00;97130.09;1225770;67;2919610;-63
2023/11/21 03:34:06;;;;;;;7.55;6.00;;;;;;;5.66;100.00;97133.84;1225986;75;2915687;-61
2023/11/21 03:36:38;;;;;;;8.20;6.50;;;;;;;5.61;100.00;97139.91;1224826;75;2913449;-63
2023/11/21 03:39:11;;;;;;;8.60;6.60;;;;;;;5.75;100.00;97142.00;1225669;75;2914920;-63
2023/11/21 03:41:46;;;;;;;7.90;5.90;;;;;;;5.66;100.00;97140.03;1225722;75;2913679;-65
2023/11/21 03:44:19;;;;;;;9.75;7.10;;;;;;;5.65;100.00;97135.06;1223973;75;2918251;-65
2023/11/21 03:46:52;;;;;;;12.10;8.30;;;;;;;5.61;100.00;97139.91;1224688;75;2920120;-64
2023/11/21 03:49:24;;;;;;;13.80;10.35;;;;;;;5.63;100.00;97134.75;1224118;75;2919697;-61
2023/11/21 03:51:57;;;;;;;12.20;8.95;;;;;;;5.76;100.00;97144.25;1223602;75;2982658;-65
2023/11/21 03:54:30;;;;;;;11.25;8.60;;;;;;;5.63;100.00;97145.63;1222771;75;2921720;-63
2023/11/21 03:57:05;;;;;;;10.60;7.95;;;;;;;5.61;100.00;97154.22;1223944;75;2918743;-65
2023/11/21 03:59:38;;;;;;;9.25;7.35;;;;;;;5.58;100.00;97151.66;1223709;75;2952355;-64
2023/11/21 04:02:10;;;;;;;9.80;7.40;;;;;;;5.79;100.00;97152.69;1223662;75;2931344;-64
2023/11/21 04:04:43;;;;;;;9.45;6.90;;;;;;;5.67;100.00;97151.66;1224284;75;2923831;-62
2023/11/21 04:07:16;;;;;;;8.55;6.65;;;;;;;5.87;100.00;97159.31;1224822;75;2923644;-65
2023/11/21 04:09:49;;;;;;;7.90;6.60;;;;;;;5.78;100.00;97165.53;1223390;75;2922412;-62
2023/11/21 04:12:24;;;;;;;7.40;5.90;;;;;;;5.94;100.00;97156.31;1222795;75;2926901;-63
2023/11/21 04:14:56;;;;;;;7.40;5.65;;;;;;;6.07;100.00;97154.16;1223838;75;2928315;-61
2023/11/21 04:17:29;;;;;;;6.20;4.80;;;;;;;6.10;100.00;97157.94;1222451;75;2921349;-66
2023/11/21 04:20:02;;;;;;;8.75;6.75;;;;;;;5.76;100.00;97160.53;1223684;75;2926858;-63
2023/11/21 04:22:34;;;;;;;8.20;6.85;;;;;;;5.76;100.00;97157.06;1222141;75;2925769;-64
2023/11/21 04:25:08;;;;;;;6.60;5.60;;;;;;;5.96;100.00;97162.81;1223736;75;2931709;-62
2023/11/21 04:27:44;;;;;;;7.00;5.70;;;;;;;6.05;100.00;97163.97;1223614;75;2921454;-62
2023/11/21 04:30:18;;;;;;;8.65;5.25;;;;;;;6.13;100.00;97152.34;1224088;75;2918409;-62
2023/11/21 04:32:50;;;;;;;5.00;4.40;;;;;;;6.03;100.00;97153.56;1224276;75;2916271;-62
2023/11/21 04:35:23;;;;;;;5.25;4.20;;;;;;;6.18;100.00;97142.78;1223479;75;2923406;-64
2023/11/21 04:37:57;;;;;;;5.35;4.00;;;;;;;6.16;100.00;97142.53;1223862;75;2930800;-64
2023/11/21 04:40:29;;;;;;;4.95;3.55;;;;;;;6.19;100.00;97130.72;1222627;75;2920711;-64
2023/11/21 04:43:05;;;;;;;3.95;3.40;;;;;;;6.29;100.00;97128.72;1224391;75;2917611;-67
2023/11/21 04:45:37;;;;;;;4.05;3.25;;;;;;;6.32;100.00;97130.50;1224323;75;2923237;-63
2023/11/21 04:48:11;;;;;;;4.15;3.00;;;;;;;6.30;100.00;97131.00;1224154;75;2925460;-61
2023/11/21 04:50:43;;;;;;;3.60;2.85;;;;;;;6.34;100.00;97133.53;1222893;75;2918762;-64
2023/11/21 04:53:16;;;;;;;3.80;3.00;;;;;;;6.31;100.00;97137.91;1222988;75;2926651;-62
2023/11/21 04:55:49;;;;;;;4.20;3.10;;;;;;;6.29;100.00;97145.78;1223961;75;2921089;-64
2023/11/21 04:58:24;;;;;;;4.95;3.50;;;;;;;6.32;100.00;97144.84;1223354;75;2924843;-65
2023/11/21 05:00:56;;;;;;;3.55;2.80;;;;;;;6.32;100.00;97153.00;1224698;75;2918114;-63
2023/11/21 05:03:29;;;;;;;3.65;3.00;;;;;;;6.22;100.00;97162.41;1222886;75;2928856;-65
2023/11/21 05:06:05;;;;;;;3.95;3.05;;;;;;;6.31;100.00;97158.94;1223633;75;2921032;-62
2023/11/21 05:08:37;;;;;;;3.75;3.10;;;;;;;6.33;100.00;97156.50;1223814;75;2928780;-63
2023/11/21 05:11:10;;;;;;;4.15;3.20;;;;;;;6.32;100.00;97160.41;1223290;75;2918425;-62
2023/11/21 05:13:46;;;;;;;6.90;4.95;;;;;;;5.90;100.00;97161.13;1222844;75;2926290;-64
2023/11/21 05:16:18;;;;;;;8.45;5.90;;;;;;;5.89;100.00;97160.38;1222459;75;2926159;-63
2023/11/21 05:18:51;;;;;;;8.35;6.00;;;;;;;6.06;100.00;97165.47;1222508;75;2946745;-65
2023/11/21 05:21:24;;;;;;;6.05;4.75;;;;;;;6.18;100.00;97168.03;1224523;75;2922909;-64
2023/11/21 05:23:57;;;;;;;6.70;5.00;;;;;;;6.08;100.00;97169.25;1224471;75;2922760;-63
2023/11/21 05:26:30;;;;;;;6.65;5.55;;;;;;;6.09;100.00;97167.31;1224799;75;2921667;-66
2023/11/21 05:29:05;;;;;;;8.10;6.05;;;;;;;6.15;100.00;97173.63;1223919;75;2919050;-62
2023/11/21 05:31:38;;;;;;;6.40;5.30;;;;;;;6.14;100.00;97170.16;1223794;75;2927973;-64
2023/11/21 05:34:10;;;;;;;7.15;4.95;;;;;;;6.32;100.00;97166.59;1223350;75;2917711;-63
2023/11/21 05:36:43;;;;;;;5.95;4.80;;;;;;;6.31;100.00;97173.25;1223019;75;2919436;-62
2023/11/21 05:39:17;;;;;;;7.85;4.40;;;;;;;6.30;100.00;97179.16;1223602;75;2928911;-64
2023/11/21 05:41:49;;;;;;;5.15;4.05;;;;;;;6.36;100.00;97180.78;1222750;75;2918951;-65
2023/11/21 05:44:25;;;;;;;5.55;4.45;;;;;;;6.14;100.00;97172.88;1223131;75;2927796;-62
2023/11/21 05:46:58;;;;;;;7.30;5.45;;;;;;;6.09;100.00;97175.44;1223342;75;2944615;-63
2023/11/21 05:49:32;;;;;;;5.65;4.80;;;;;;;6.34;100.00;97190.63;1223732;75;2918993;-65
2023/11/21 05:52:05;;;;;;;5.55;4.50;;;;;;;6.40;100.00;97177.94;1222637;75;2927116;-64
2023/11/21 05:54:37;;;;;;;4.25;3.85;;;;;;;6.42;100.00;97191.03;1223659;75;2932833;-64
2023/11/21 05:57:10;;;;;;;3.80;3.15;;;;;;;6.38;100.00;97202.84;1222040;75;2924662;-63
2023/11/21 05:59:46;;;;;;;4.35;3.40;;;;;;;6.31;100.00;97188.81;1223062;75;2918127;-63
2023/11/21 06:02:19;;;;;;;8.50;6.35;;;;;;;6.01;100.00;97196.00;1222451;75;2933460;-61
2023/11/21 06:04:51;;;;;;;5.90;4.80;;;;;;;6.28;100.00;97198.66;1222583;75;2919652;-63
2023/11/21 06:07:24;;;;;;;6.75;5.00;;;;;;;6.28;100.00;97214.22;1223592;75;2924128;-64
2023/11/21 06:09:56;;;;;;;5.15;4.05;;;;;;;6.32;100.00;97222.94;1223846;75;2921676;-62
2023/11/21 06:12:29;;;;;;;5.85;4.40;;;;;;;6.24;100.00;97227.94;1222564;75;2926427;-64
2023/11/21 06:15:08;;;;;;;6.25;4.85;;;;;;;6.27;100.00;97223.56;1223505;75;2922925;-61
2023/11/21 06:17:41;;;;;;;5.35;4.75;;;;;;;6.23;100.00;97222.97;1222524;75;2932353;-62
2023/11/21 06:20:18;;;;;;;6.40;4.95;;;;;;;6.35;100.00;97222.03;1222930;75;2922822;-67
2023/11/21 06:22:52;;;;;;;5.20;4.60;;;;;;;6.14;100.00;97218.31;1223093;75;2939483;-61
2023/11/21 06:25:25;;;;;;;9.25;7.30;;;;;;;5.98;100.00;97225.56;1222936;75;2924082;-64
2023/11/21 06:27:58;;;;;;;6.75;5.55;;;;;;;6.35;100.00;97222.78;1223976;75;2922325;-64
2023/11/21 06:30:33;;;;;;;5.45;4.60;;;;;;;6.38;100.00;97216.44;1222661;75;2921536;-65
2023/11/21 06:33:06;;;;;;;6.50;4.85;;;;;;;6.25;100.00;97215.09;1223262;75;2922832;-63
2023/11/21 06:35:39;;;;;;;7.00;4.75;;;;;;;6.40;100.00;97221.41;1223640;75;2923676;-62
2023/11/21 06:38:12;;;;;;;4.45;3.80;;;;;;;6.49;100.00;97215.94;1223707;75;2925345;-63
2023/11/21 06:40:45;;;;;;;9.10;6.85;;;;;;;6.10;100.00;97228.59;1223439;75;2922504;-64
2023/11/21 06:43:18;;;;;;;9.35;6.85;;;;;;;6.09;100.00;97230.56;1223743;75;2920274;-63
2023/11/21 06:45:53;;;;;;;8.95;6.30;;;;;;;6.27;100.00;97223.56;1222440;75;2917707;-62
2023/11/21 06:48:26;;;;;;;7.75;6.30;;;;;;;6.32;100.00;97225.66;1223682;75;2920960;-61
2023/11/21 06:50:59;;;;;;;6.75;5.45;;;;;;;6.47;100.00;97225.75;1222680;75;2938437;-60
2023/11/21 06:53:32;;;;;;;5.40;4.75;;;;;;;6.52;100.00;97231.34;1222302;75;2918660;-64
2023/11/21 06:56:04;;;;;;;4.60;4.10;;;;;;;6.54;100.00;97239.81;1223545;75;2918410;-63
2023/11/21 06:58:39;;;;;;;5.85;4.50;;;;;;;6.53;100.00;97242.97;1224258;83;2919781;-64
2023/11/21 07:01:15;;;;;;;5.40;3.95;;;;;;;6.63;100.00;97246.41;1177030;75;6272735;-61
2023/11/21 07:03:47;;;;;;;3.60;3.20;;;;;;;6.66;100.00;97242.78;1222919;75;2918263;-62
2023/11/21 07:06:20;;;;;;;9.50;6.75;;;;;;;6.17;100.00;97250.75;1224027;75;2921976;-61
2023/11/21 07:08:53;;;;;;;12.65;9.45;;;;;;;5.95;100.00;97250.19;1223158;75;2925054;-65
2023/11/21 07:11:25;;;;;;;14.00;10.35;;;;;;;5.89;100.00;97251.97;1222896;75;2920262;-64
2023/11/21 07:13:58;;;;;;;13.25;9.75;;;;;;;6.14;100.00;97256.38;1224258;75;2921394;-66
2023/11/21 07:16:34;;;;;;;12.10;10.15;;;;;;;6.36;100.00;97253.44;1224292;75;2926935;-61
2023/11/21 07:19:08;;;;;;;10.70;8.30;;;;;;;6.39;100.00;97250.56;1224016;75;2925151;-61
2023/11/21 07:21:41;;;;;;;12.70;9.90;;;;;;;6.32;100.00;97247.41;1224341;75;2921450;-64
2023/11/21 07:24:14;;;;;;;11.50;9.60;;;;;;;6.45;100.00;97252.69;1224500;75;2927408;-65
2023/11/21 07:26:47;;;;;;;10.55;7.90;;;;;;;6.74;100.00;97239.28;1223155;75;2924967;-62
2023/11/21 07:29:20;;;;;;;9.00;7.25;;;;;;;6.79;100.00;97248.78;1222536;75;2922053;-61
2023/11/21 07:31:57;;;;;;;6.50;5.25;;;;;;;6.91;100.00;97249.78;1223777;75;2927769;-64
2023/11/21 07:34:29;;;;;;;6.05;5.05;;;;;;;7.00;100.00;97249.75;1223469;75;2936164;-65
2023/11/21 07:37:02;;;;;;;8.05;6.65;;;;;;;6.80;100.00;97250.28;1224036;75;2921074;-62
2023/11/21 07:39:35;;;;;;;8.75;6.55;;;;;;;6.91;100.00;97255.22;1224361;75;2920831;-63
2023/11/21 07:42:09;;;;;;;9.20;6.80;;;;;;;6.82;100.00;97254.03;1223895;75;2917071;-62
2023/11/21 07:44:41;;;;;;;15.60;11.90;;;;;;;6.40;100.00;97254.06;1225031;75;2926084;-61
2023/11/21 07:47:16;;;;;;;14.70;11.40;;;;;;;6.33;100.00;97257.84;1224342;75;2927393;-63
2023/11/21 07:49:49;;;;;;;19.40;12.75;;;;;;;6.47;100.00;97253.72;1223181;75;2937611;-66
2023/11/21 07:52:22;;;;;;;15.90;11.75;;;;;;;6.66;100.00;97253.66;1222970;75;2942524;-62
2023/11/21 07:54:54;;;;;;;17.35;11.90;;;;;;;6.75;100.00;97250.91;1222874;75;2928214;-66
2023/11/21 07:57:27;;;;;;;11.10;9.35;;;;;;;7.14;100.00;97254.47;1223524;75;2925494;-61
2023/11/21 08:00:00;;;;;;;11.00;8.30;;;;;;;7.06;100.00;97249.88;1222297;75;2925521;-64
2023/11/21 08:02:35;;;;;;;11.10;9.15;;;;;;;6.97;100.00;97243.22;1222957;75;2942239;-64
2023/11/21 08:05:10;;;;;;;11.20;8.60;;;;;;;7.09;100.00;97246.94;1223176;75;2922149;-64
2023/11/21 08:07:43;;;;;;;8.10;6.90;;;;;;;7.33;100.00;97246.97;1224149;75;2921513;-63
2023/11/21 08:10:17;;;;;;;9.35;7.40;;;;;;;7.45;100.00;97247.94;1222940;75;2925420;-62
2023/11/21 08:12:51;;;;;;;21.35;13.45;;;;;;;7.28;100.00;97246.88;1222873;75;2918663;-63
2023/11/21 08:15:23;;;;;;;17.95;12.60;;;;;;;7.16;100.00;97245.88;1223383;75;2925289;-64
2023/11/21 08:17:59;;;;;;;18.60;13.90;;;;;;;7.30;100.00;97244.44;1223656;75;2918998;-62
2023/11/21 08:20:31;;;;;;;15.10;11.70;;;;;;;7.27;100.00;97245.38;1223157;75;2916888;-66
2023/11/21 08:23:05;;;;;;;18.35;12.00;;;;;;;7.40;100.00;97251.31;1223123;75;2909027;-67
2023/11/21 08:25:38;;;;;;;11.50;9.40;;;;;;;7.61;100.00;97249.53;1222728;75;2923469;-62
2023/11/21 08:28:11;;;;;;;10.70;8.10;;;;;;;7.96;100.00;97243.47;1223415;75;2937682;-61
2023/11/21 08:30:44;;;;;;;9.40;7.60;;;;;;;7.84;100.00;97242.50;1222544;75;2927660;-66
2023/11/21 08:33:19;;;;;;;11.50;8.20;;;;;;;7.92;100.00;97242.91;1223168;75;2924419;-62
2023/11/21 08:35:52;;;;;;;13.20;9.30;;;;;;;8.18;100.00;97234.94;1223020;75;2923951;-65
2023/11/21 08:38:24;;;;;;;10.50;8.55;;;;;;;8.29;100.00;97235.13;1223148;75;2920128;-60
2023/11/21 08:40:57;;;;;;;13.50;10.45;;;;;;;8.19;100.00;97234.47;1223575;75;2918657;-60
2023/11/21 08:43:30;;;;;;;22.65;15.50;;;;;;;8.10;100.00;97227.16;1223798;75;2923362;-63
2023/11/21 08:46:03;;;;;;;19.35;13.00;;;;;;;8.12;100.00;97234.84;1223243;75;2929786;-67
2023/11/21 08:48:38;;;;;;;19.75;11.85;;;;;;;8.40;100.00;97227.19;1221649;75;2922326;-65
2023/11/21 08:51:14;;;;;;;16.05;10.30;;;;;;;8.69;100.00;97231.09;1223721;75;2917863;-65
2023/11/21 08:53:47;;;;;;;10.85;7.30;;;;;;;8.95;100.00;97231.22;1223052;75;2926615;-64
2023/11/21 08:56:20;;;;;;;8.90;5.95;;;;;;;9.02;100.00;97241.75;1222977;75;2925945;-63
2023/11/21 08:58:53;;;;;;;8.90;6.25;;;;;;;8.97;100.00;97236.94;1222694;75;2932964;-69
2023/11/21 09:01:26;;;;;;;8.50;6.05;;;;;;;9.16;100.00;97234.72;1223308;75;2924660;-59
2023/11/21 09:04:02;;;;;;;5.95;4.10;;;;;;;9.12;100.00;97234.94;1221267;75;2926794;-62
2023/11/21 09:06:35;;;;;;;5.60;4.25;;;;;;;9.38;100.00;97226.84;1223020;75;2921148;-63
2023/11/21 09:09:08;;;;;;;7.45;4.75;;;;;;;9.56;100.00;97233.25;1223367;75;2929855;-65
2023/11/21 09:11:41;;;;;;;4.85;3.45;;;;;;;9.64;100.00;97231.59;1223354;68;2928390;-61
2023/11/21 09:14:15;;;;;;;5.90;4.00;;;;;;;9.53;100.00;97223.28;1222790;75;2925114;-62
2023/11/21 09:16:48;;;;;;;6.30;4.70;;;;;;;9.47;100.00;97223.19;1223324;75;2926128;-64
2023/11/21 09:19:31;;;;;;;7.20;4.80;;;;;;;9.51;100.00;97225.75;1222443;75;2927166;-68
2023/11/21 09:22:04;;;;;;;6.75;4.90;;;;;;;9.54;100.00;97224.78;1223255;75;2921698;-65
2023/11/21 09:24:38;;;;;;;7.25;4.55;;;;;;;9.58;100.00;97230.78;1223047;75;2930427;-62
2023/11/21 09:27:11;;;;;;;7.10;4.65;;;;;;;9.64;100.00;97228.84;1221161;75;2937036;-62
2023/11/21 09:29:43;;;;;;;7.35;4.70;;;;;;;9.76;100.00;97221.53;1221412;75;2917149;-63
2023/11/21 09:32:18;;;;;;;6.45;3.75;;;;;;;9.77;100.00;97226.53;1222557;75;2919637;-62
2023/11/21 09:34:55;;;;;;;5.35;3.90;;;;;;;9.86;100.00;97231.13;1222898;75;2928280;-66
2023/11/21 09:37:27;;;;;;;7.10;4.45;;;;;;;10.11;100.00;97224.16;1222749;75;2929919;-63
2023/11/21 09:40:02;;;;;;;9.00;5.35;;;;;;;10.22;100.00;97229.72;1220043;75;2926020;-62
2023/11/21 09:42:45;;;;;;;9.75;6.30;;;;;;;9.90;100.00;97230.88;1221913;75;2918992;-63
2023/11/21 09:45:26;;;;;;;13.40;7.05;;;;;;;9.86;100.00;97225.66;1221878;75;2919932;-65
2023/11/21 09:48:00;;;;;;;15.85;10.70;;;;;;;9.88;100.00;97223.16;1221547;75;2949667;-65
2023/11/21 09:50:36;;;;;;;12.90;8.85;;;;;;;9.59;100.00;97224.09;1221907;75;2925753;-63
2023/11/21 09:53:18;;;;;;;19.55;13.05;;;;;;;9.60;100.00;97228.34;1221102;75;2925503;-65
2023/11/21 09:55:54;;;;;;;28.45;20.35;;;;;;;9.74;100.00;97221.25;1222143;75;2920204;-61
2023/11/21 09:58:27;;;;;;;14.35;9.50;;;;;;;9.52;100.00;97227.97;1222693;75;2921379;-64
2023/11/21 10:01:02;;;;;;;7.50;5.50;;;;;;;9.52;100.00;97224.50;1221811;75;2922966;-67
2023/11/21 10:03:38;;;;;;;6.40;4.80;;;;;;;9.34;100.00;97220.81;1222818;75;2917426;-67
2023/11/21 10:06:16;;;;;;;6.25;4.45;;;;;;;9.41;100.00;97216.94;1222954;75;2919370;-61
2023/11/21 10:08:51;;;;;;;8.40;4.80;;;;;;;9.26;100.00;97217.00;1220850;75;2925634;-62
2023/11/21 10:11:25;;;;;;;11.85;6.50;;;;;;;9.12;100.00;97204.91;1221658;75;2939816;-66
2023/11/21 10:14:02;;;;;;;11.95;8.50;;;;;;;9.25;100.00;97210.03;1221980;75;2920200;-62
2023/11/21 10:16:35;;;;;;;10.00;5.90;;;;;;;9.16;100.00;97212.88;1222200;75;2929181;-67
2023/11/21 10:19:09;;;;;;;10.05;6.80;;;;;;;9.38;100.00;97215.91;1218376;75;2920366;-65
2023/11/21 10:21:44;;;;;;;9.30;6.00;;;;;;;9.28;100.00;97216.50;1220870;75;2920349;-62
2023/11/21 10:24:18;;;;;;;8.65;5.90;;;;;;;9.53;100.00;97207.63;1222040;75;2930876;-67
2023/11/21 10:26:53;;;;;;;12.35;7.15;;;;;;;9.23;100.00;97217.19;1222772;75;2924384;-65
2023/11/21 10:29:27;;;;;;;9.85;7.60;;;;;;;9.12;100.00;97217.81;1221731;75;2922202;-59
2023/11/21 10:32:00;;;;;;;12.45;7.70;;;;;;;9.04;100.00;97213.97;1221656;75;2919524;-64
2023/11/21 10:34:33;;;;;;;11.35;7.25;;;;;;;9.27;100.00;97215.75;1222218;75;2917368;-62
2023/11/21 10:37:19;;;;;;;13.40;7.65;;;;;;;9.26;100.00;97219.72;1221839;75;2928638;-62
2023/11/21 10:39:52;;;;;;;11.00;6.60;;;;;;;9.46;100.00;97210.78;1221850;75;2927078;-64
2023/11/21 10:42:26;;;;;;;8.95;6.90;;;;;;;9.26;100.00;97210.75;1221444;75;2929961;-64
2023/11/21 10:45:00;;;;;;;11.00;5.55;;;;;;;9.25;100.00;97204.56;1221377;75;2922265;-66
2023/11/21 10:47:36;;;;;;;8.55;6.00;;;;;;;9.14;100.00;97205.19;1222870;75;2918366;-63
2023/11/21 10:50:10;;;;;;;7.40;5.95;;;;;;;9.44;100.00;97204.28;1221646;75;2945641;-66
2023/11/21 10:52:48;;;;;;;7.85;5.95;;;;;;;9.65;100.00;97205.03;1222480;75;2927690;-65
2023/11/21 10:55:23;;;;;;;7.50;5.45;;;;;;;9.51;100.00;97201.91;1221183;75;2924139;-61
2023/11/21 10:58:01;;;;;;;8.25;5.10;;;;;;;9.41;100.00;97200.53;1223126;75;2930448;-59
2023/11/21 11:00:35;;;;;;;7.20;4.80;;;;;;;9.45;100.00;97205.78;1223442;75;2919456;-63
2023/11/21 11:03:13;;;;;;;6.60;4.15;;;;;;;9.63;100.00;97205.50;1223677;75;2920363;-62
2023/11/21 11:05:54;;;;;;;7.10;3.80;;;;;;;9.95;100.00;97192.66;1221768;75;2936883;-65
2023/11/21 11:08:29;;;;;;;7.60;5.15;;;;;;;9.87;100.00;97197.06;1223044;75;2929908;-65
2023/11/21 11:11:02;;;;;;;7.80;5.30;;;;;;;9.82;100.00;97195.78;1224419;75;2922880;-65
2023/11/21 11:13:36;;;;;;;7.55;5.00;;;;;;;9.80;100.00;97192.75;1224042;75;2929944;-63
2023/11/21 11:16:12;;;;;;;9.60;5.30;;;;;;;9.86;100.00;97192.84;1223557;75;2927484;-67
2023/11/21 11:18:44;;;;;;;8.05;5.25;;;;;;;10.02;100.00;97188.75;1223685;75;2926403;-63
2023/11/21 11:21:34;;;;;;;8.40;5.05;;;;;;;9.65;100.00;97200.31;1223004;75;2927966;-62
2023/11/21 11:24:47;;;;;;;6.45;4.00;;;;;;;9.69;100.00;97200.09;1221309;75;2951213;-65
2023/11/21 11:27:34;;;;;;;6.60;4.70;;;;;;;9.70;100.00;97202.34;1223294;75;2946846;-65
2023/11/21 11:30:31;;;;;;;5.30;3.60;;;;;;;9.97;100.00;97197.66;1224018;75;2921662;-62
2023/11/21 11:33:11;;;;;;;6.90;4.30;;;;;;;10.01;100.00;97198.94;1223520;75;2926312;-67
2023/11/21 11:35:56;;;;;;;8.30;4.35;;;;;;;9.82;100.00;97189.56;1222081;75;2928716;-66
2023/11/21 11:38:36;;;;;;;7.40;4.95;;;;;;;9.65;100.00;97183.91;1223498;75;2922261;-67
2023/11/21 11:41:12;;;;;;;7.50;4.75;;;;;;;9.65;100.00;97194.09;1223018;75;2942528;-64
2023/11/21 11:43:45;;;;;;;5.95;4.00;;;;;;;9.73;100.00;97185.00;1223340;75;2922598;-65
2023/11/21 11:46:18;;;;;;;6.65;4.30;;;;;;;9.72;100.00;97180.75;1222558;75;2931190;-67
2023/11/21 11:49:06;;;;;;;8.10;6.35;;;;;;;9.56;100.00;97184.06;1223465;75;2921930;-65